Terminal Aerodrome Forecast
Issued by NWS Cleveland, OH

Home | Current Version | Previous Version | Text Only | Print | Product List | Glossary Off
Versions: 1 2 3 4 5 6 7 8 9 10 11 12 13 14 15 16 17

000
FTUS41 KCLE 271700
TAFCAK
TAF
KCAK 271726Z 2718/2818 VRB03KT P6SM SCT040
      TEMPO 2718/2722 BKN040
     FM272200 VRB03KT P6SM SCT250
     FM281400 12005KT P6SM BKN250=

USA.gov is the U.S. government's official web portal to all federal, state and local government web resources and services.